sensor_id;sensor_type;location;lat;lon;timestamp;temperature;humidity
20574;DHT22;10445;50.216;7.912;2022-10-31T00:01:32;12.50;44.10
20574;DHT22;10445;50.216;7.912;2022-10-31T00:04:22;12.50;44.20
20574;DHT22;10445;50.216;7.912;2022-10-31T00:07:11;12.60;44.80
20574;DHT22;10445;50.216;7.912;2022-10-31T00:09:59;12.60;43.80
20574;DHT22;10445;50.216;7.912;2022-10-31T00:12:48;12.60;44.50
20574;DHT22;10445;50.216;7.912;2022-10-31T00:15:38;12.60;46.30
20574;DHT22;10445;50.216;7.912;2022-10-31T00:18:27;12.60;45.60
20574;DHT22;10445;50.216;7.912;2022-10-31T00:21:17;12.50;46.00
20574;DHT22;10445;50.216;7.912;2022-10-31T00:24:06;12.50;46.50
20574;DHT22;10445;50.216;7.912;2022-10-31T00:26:55;12.40;47.80
20574;DHT22;10445;50.216;7.912;2022-10-31T00:29:43;12.40;49.40
20574;DHT22;10445;50.216;7.912;2022-10-31T00:32:32;12.40;47.60
20574;DHT22;10445;50.216;7.912;2022-10-31T00:35:21;12.40;49.90
20574;DHT22;10445;50.216;7.912;2022-10-31T00:38:11;12.40;50.60
20574;DHT22;10445;50.216;7.912;2022-10-31T00:40:59;12.50;50.60
20574;DHT22;10445;50.216;7.912;2022-10-31T00:43:48;12.50;49.90
20574;DHT22;10445;50.216;7.912;2022-10-31T00:46:36;12.40;50.50
20574;DHT22;10445;50.216;7.912;2022-10-31T00:49:25;12.40;50.30
20574;DHT22;10445;50.216;7.912;2022-10-31T00:52:14;12.50;50.20
20574;DHT22;10445;50.216;7.912;2022-10-31T00:55:04;12.50;49.90
20574;DHT22;10445;50.216;7.912;2022-10-31T00:57:53;12.50;48.50
20574;DHT22;10445;50.216;7.912;2022-10-31T01:00:41;12.40;49.30
20574;DHT22;10445;50.216;7.912;2022-10-31T01:03:35;12.50;49.60
20574;DHT22;10445;50.216;7.912;2022-10-31T01:06:25;12.40;49.90
20574;DHT22;10445;50.216;7.912;2022-10-31T01:09:14;12.30;50.60
20574;DHT22;10445;50.216;7.912;2022-10-31T01:12:04;12.30;51.40
20574;DHT22;10445;50.216;7.912;2022-10-31T01:14:53;12.30;52.20
20574;DHT22;10445;50.216;7.912;2022-10-31T01:17:41;12.30;52.30
20574;DHT22;10445;50.216;7.912;2022-10-31T01:20:30;12.30;51.20
20574;DHT22;10445;50.216;7.912;2022-10-31T01:23:19;12.40;51.20
20574;DHT22;10445;50.216;7.912;2022-10-31T01:26:10;12.40;51.50
20574;DHT22;10445;50.216;7.912;2022-10-31T01:29:02;12.40;50.30
20574;DHT22;10445;50.216;7.912;2022-10-31T01:31:51;12.50;49.90
20574;DHT22;10445;50.216;7.912;2022-10-31T01:34:40;12.50;49.30
20574;DHT22;10445;50.216;7.912;2022-10-31T01:37:28;12.50;49.30
20574;DHT22;10445;50.216;7.912;2022-10-31T01:40:18;12.40;49.80
20574;DHT22;10445;50.216;7.912;2022-10-31T01:43:11;12.40;51.10
20574;DHT22;10445;50.216;7.912;2022-10-31T01:46:02;12.40;51.90
20574;DHT22;10445;50.216;7.912;2022-10-31T01:48:52;12.30;52.50
20574;DHT22;10445;50.216;7.912;2022-10-31T01:51:46;12.30;53.80
20574;DHT22;10445;50.216;7.912;2022-10-31T01:54:40;12.40;52.50
20574;DHT22;10445;50.216;7.912;2022-10-31T01:57:32;12.50;50.30
20574;DHT22;10445;50.216;7.912;2022-10-31T02:00:22;12.60;48.60
20574;DHT22;10445;50.216;7.912;2022-10-31T02:03:12;12.50;49.90
20574;DHT22;10445;50.216;7.912;2022-10-31T02:06:00;12.40;51.20
20574;DHT22;10445;50.216;7.912;2022-10-31T02:08:50;12.40;52.30
20574;DHT22;10445;50.216;7.912;2022-10-31T02:11:41;12.30;53.10
20574;DHT22;10445;50.216;7.912;2022-10-31T02:14:31;12.30;53.30
20574;DHT22;10445;50.216;7.912;2022-10-31T02:17:20;12.30;53.50
20574;DHT22;10445;50.216;7.912;2022-10-31T02:20:14;12.30;53.40
20574;DHT22;10445;50.216;7.912;2022-10-31T02:26:51;12.30;54.10
20574;DHT22;10445;50.216;7.912;2022-10-31T02:30:03;12.30;55.00
20574;DHT22;10445;50.216;7.912;2022-10-31T02:33:10;12.30;55.10
20574;DHT22;10445;50.216;7.912;2022-10-31T02:36:07;12.30;54.10
20574;DHT22;10445;50.216;7.912;2022-10-31T02:39:05;12.30;54.50
20574;DHT22;10445;50.216;7.912;2022-10-31T02:42:03;12.30;55.20
20574;DHT22;10445;50.216;7.912;2022-10-31T02:44:58;12.30;55.80
20574;DHT22;10445;50.216;7.912;2022-10-31T02:47:50;12.20;56.10
20574;DHT22;10445;50.216;7.912;2022-10-31T02:50:47;12.20;56.70
20574;DHT22;10445;50.216;7.912;2022-10-31T02:53:38;12.20;57.30
20574;DHT22;10445;50.216;7.912;2022-10-31T02:56:27;12.20;58.00
20574;DHT22;10445;50.216;7.912;2022-10-31T02:59:16;12.20;59.30
20574;DHT22;10445;50.216;7.912;2022-10-31T03:02:12;12.20;59.80
20574;DHT22;10445;50.216;7.912;2022-10-31T03:05:27;12.30;60.30
20574;DHT22;10445;50.216;7.912;2022-10-31T03:08:24;12.30;59.10
20574;DHT22;10445;50.216;7.912;2022-10-31T03:11:17;12.30;58.40
20574;DHT22;10445;50.216;7.912;2022-10-31T03:14:12;12.20;58.70
20574;DHT22;10445;50.216;7.912;2022-10-31T03:17:05;12.20;58.90
20574;DHT22;10445;50.216;7.912;2022-10-31T03:19:57;12.20;59.40
20574;DHT22;10445;50.216;7.912;2022-10-31T03:22:47;12.20;59.50
20574;DHT22;10445;50.216;7.912;2022-10-31T03:25:38;12.20;60.50
20574;DHT22;10445;50.216;7.912;2022-10-31T03:28:30;12.20;61.30
20574;DHT22;10445;50.216;7.912;2022-10-31T03:31:25;12.20;61.60
20574;DHT22;10445;50.216;7.912;2022-10-31T03:34:15;12.10;62.20
20574;DHT22;10445;50.216;7.912;2022-10-31T03:37:08;12.20;61.30
20574;DHT22;10445;50.216;7.912;2022-10-31T03:40:00;12.20;60.80
20574;DHT22;10445;50.216;7.912;2022-10-31T03:42:54;12.20;61.10
20574;DHT22;10445;50.216;7.912;2022-10-31T03:45:46;12.20;61.10
20574;DHT22;10445;50.216;7.912;2022-10-31T03:48:35;12.20;61.50
20574;DHT22;10445;50.216;7.912;2022-10-31T03:51:28;12.10;62.00
20574;DHT22;10445;50.216;7.912;2022-10-31T03:54:24;12.10;62.00
20574;DHT22;10445;50.216;7.912;2022-10-31T03:57:19;12.10;62.00
20574;DHT22;10445;50.216;7.912;2022-10-31T04:00:13;12.10;61.70
20574;DHT22;10445;50.216;7.912;2022-10-31T04:03:05;12.10;62.10
20574;DHT22;10445;50.216;7.912;2022-10-31T04:06:00;12.00;63.50
20574;DHT22;10445;50.216;7.912;2022-10-31T04:08:52;12.00;64.30
20574;DHT22;10445;50.216;7.912;2022-10-31T04:11:46;12.00;65.00
20574;DHT22;10445;50.216;7.912;2022-10-31T04:14:37;11.90;66.30
20574;DHT22;10445;50.216;7.912;2022-10-31T04:17:30;11.90;70.10
20574;DHT22;10445;50.216;7.912;2022-10-31T04:20:29;11.90;72.20
20574;DHT22;10445;50.216;7.912;2022-10-31T04:23:20;11.90;72.30
20574;DHT22;10445;50.216;7.912;2022-10-31T04:26:10;12.00;71.10
20574;DHT22;10445;50.216;7.912;2022-10-31T04:29:00;11.90;70.40
20574;DHT22;10445;50.216;7.912;2022-10-31T04:31:48;11.90;70.00
20574;DHT22;10445;50.216;7.912;2022-10-31T04:34:38;11.90;70.30
20574;DHT22;10445;50.216;7.912;2022-10-31T04:37:27;11.90;70.00
20574;DHT22;10445;50.216;7.912;2022-10-31T04:40:16;11.90;70.00
20574;DHT22;10445;50.216;7.912;2022-10-31T04:43:04;11.90;69.80
20574;DHT22;10445;50.216;7.912;2022-10-31T04:45:53;11.80;69.20
20574;DHT22;10445;50.216;7.912;2022-10-31T04:48:42;11.90;68.90
20574;DHT22;10445;50.216;7.912;2022-10-31T04:51:32;11.80;69.20
20574;DHT22;10445;50.216;7.912;2022-10-31T04:54:20;11.70;70.00
20574;DHT22;10445;50.216;7.912;2022-10-31T04:57:09;11.70;70.70
20574;DHT22;10445;50.216;7.912;2022-10-31T04:59:57;11.80;71.80
20574;DHT22;10445;50.216;7.912;2022-10-31T05:02:46;11.90;71.60
20574;DHT22;10445;50.216;7.912;2022-10-31T05:05:35;12.00;70.20
20574;DHT22;10445;50.216;7.912;2022-10-31T05:08:25;11.90;69.20
20574;DHT22;10445;50.216;7.912;2022-10-31T05:11:14;11.90;69.00
20574;DHT22;10445;50.216;7.912;2022-10-31T05:14:02;11.80;69.40
20574;DHT22;10445;50.216;7.912;2022-10-31T05:16:51;11.80;69.80
20574;DHT22;10445;50.216;7.912;2022-10-31T05:19:40;11.70;69.90
20574;DHT22;10445;50.216;7.912;2022-10-31T05:22:28;11.60;69.90
20574;DHT22;10445;50.216;7.912;2022-10-31T05:25:20;11.60;70.30
20574;DHT22;10445;50.216;7.912;2022-10-31T05:28:08;11.60;71.10
20574;DHT22;10445;50.216;7.912;2022-10-31T05:30:57;11.50;72.00
20574;DHT22;10445;50.216;7.912;2022-10-31T05:33:45;11.40;72.40
20574;DHT22;10445;50.216;7.912;2022-10-31T05:36:34;11.40;74.50
20574;DHT22;10445;50.216;7.912;2022-10-31T05:39:23;11.30;74.90
20574;DHT22;10445;50.216;7.912;2022-10-31T05:42:13;11.20;75.50
20574;DHT22;10445;50.216;7.912;2022-10-31T05:45:02;11.20;75.50
20574;DHT22;10445;50.216;7.912;2022-10-31T05:47:51;11.20;76.60
20574;DHT22;10445;50.216;7.912;2022-10-31T05:50:41;11.20;76.70
20574;DHT22;10445;50.216;7.912;2022-10-31T05:53:30;11.10;80.00
20574;DHT22;10445;50.216;7.912;2022-10-31T05:56:18;11.10;81.40
20574;DHT22;10445;50.216;7.912;2022-10-31T05:59:08;11.00;83.30
20574;DHT22;10445;50.216;7.912;2022-10-31T06:01:57;11.00;87.50
20574;DHT22;10445;50.216;7.912;2022-10-31T06:04:46;11.10;87.90
20574;DHT22;10445;50.216;7.912;2022-10-31T06:07:35;11.10;88.20
20574;DHT22;10445;50.216;7.912;2022-10-31T06:10:24;11.10;87.20
20574;DHT22;10445;50.216;7.912;2022-10-31T06:13:12;11.10;86.20
20574;DHT22;10445;50.216;7.912;2022-10-31T06:16:03;11.20;85.50
20574;DHT22;10445;50.216;7.912;2022-10-31T06:18:51;11.20;85.30
20574;DHT22;10445;50.216;7.912;2022-10-31T06:21:40;11.30;85.50
20574;DHT22;10445;50.216;7.912;2022-10-31T06:24:28;11.30;85.40
20574;DHT22;10445;50.216;7.912;2022-10-31T06:27:17;11.40;84.20
20574;DHT22;10445;50.216;7.912;2022-10-31T06:36:59;11.70;82.00
20574;DHT22;10445;50.216;7.912;2022-10-31T06:39:49;11.70;81.10
20574;DHT22;10445;50.216;7.912;2022-10-31T06:42:38;11.70;80.50
20574;DHT22;10445;50.216;7.912;2022-10-31T06:45:27;11.80;80.40
20574;DHT22;10445;50.216;7.912;2022-10-31T06:48:17;11.80;80.40
20574;DHT22;10445;50.216;7.912;2022-10-31T06:51:10;11.90;79.90
20574;DHT22;10445;50.216;7.912;2022-10-31T06:54:00;11.90;79.90
20574;DHT22;10445;50.216;7.912;2022-10-31T06:56:50;12.00;79.20
20574;DHT22;10445;50.216;7.912;2022-10-31T06:59:47;12.10;77.40
20574;DHT22;10445;50.216;7.912;2022-10-31T07:02:37;12.20;74.20
20574;DHT22;10445;50.216;7.912;2022-10-31T07:08:06;12.20;74.00
20574;DHT22;10445;50.216;7.912;2022-10-31T07:10:58;12.20;73.20
20574;DHT22;10445;50.216;7.912;2022-10-31T07:13:47;12.30;73.40
20574;DHT22;10445;50.216;7.912;2022-10-31T07:16:36;12.40;72.50
20574;DHT22;10445;50.216;7.912;2022-10-31T07:19:29;12.40;72.70
20574;DHT22;10445;50.216;7.912;2022-10-31T07:22:31;12.50;72.60
20574;DHT22;10445;50.216;7.912;2022-10-31T07:25:25;12.70;71.60
20574;DHT22;10445;50.216;7.912;2022-10-31T07:28:30;12.80;70.00
20574;DHT22;10445;50.216;7.912;2022-10-31T07:31:24;12.90;66.60
20574;DHT22;10445;50.216;7.912;2022-10-31T07:34:01;13.00;65.10
20574;DHT22;10445;50.216;7.912;2022-10-31T07:36:50;13.10;65.30
20574;DHT22;10445;50.216;7.912;2022-10-31T07:39:40;13.10;65.10
20574;DHT22;10445;50.216;7.912;2022-10-31T07:42:38;13.20;66.60
20574;DHT22;10445;50.216;7.912;2022-10-31T07:45:29;13.30;67.70
20574;DHT22;10445;50.216;7.912;2022-10-31T08:21:23;14.30;63.20
20574;DHT22;10445;50.216;7.912;2022-10-31T08:28:53;14.60;63.60
20574;DHT22;10445;50.216;7.912;2022-10-31T08:31:43;14.80;59.50
20574;DHT22;10445;50.216;7.912;2022-10-31T08:34:31;15.00;54.50
20574;DHT22;10445;50.216;7.912;2022-10-31T08:37:25;15.10;49.50
20574;DHT22;10445;50.216;7.912;2022-10-31T09:05:13;16.20;51.00
20574;DHT22;10445;50.216;7.912;2022-10-31T09:08:40;16.20;52.10
20574;DHT22;10445;50.216;7.912;2022-10-31T09:15:30;16.40;39.50
20574;DHT22;10445;50.216;7.912;2022-10-31T09:18:21;16.60;30.50
20574;DHT22;10445;50.216;7.912;2022-10-31T09:21:13;16.70;28.50
20574;DHT22;10445;50.216;7.912;2022-10-31T09:28:35;16.70;23.30
20574;DHT22;10445;50.216;7.912;2022-10-31T09:31:45;16.80;25.70
20574;DHT22;10445;50.216;7.912;2022-10-31T09:34:53;16.80;25.10
20574;DHT22;10445;50.216;7.912;2022-10-31T09:42:37;17.00;23.90
20574;DHT22;10445;50.216;7.912;2022-10-31T09:45:33;17.10;21.70
20574;DHT22;10445;50.216;7.912;2022-10-31T09:51:18;17.10;28.40
20574;DHT22;10445;50.216;7.912;2022-10-31T09:57:39;17.00;27.00
20574;DHT22;10445;50.216;7.912;2022-10-31T10:09:13;16.90;28.50
20574;DHT22;10445;50.216;7.912;2022-10-31T10:12:09;16.80;27.80
20574;DHT22;10445;50.216;7.912;2022-10-31T10:15:31;16.70;31.00
20574;DHT22;10445;50.216;7.912;2022-10-31T10:18:32;16.70;33.60
20574;DHT22;10445;50.216;7.912;2022-10-31T10:21:49;16.60;32.80
20574;DHT22;10445;50.216;7.912;2022-10-31T10:24:50;16.60;32.30
20574;DHT22;10445;50.216;7.912;2022-10-31T10:27:52;16.60;33.40
20574;DHT22;10445;50.216;7.912;2022-10-31T10:30:48;16.50;32.80
20574;DHT22;10445;50.216;7.912;2022-10-31T10:33:41;16.40;33.50
20574;DHT22;10445;50.216;7.912;2022-10-31T10:36:36;16.30;36.60
20574;DHT22;10445;50.216;7.912;2022-10-31T10:39:31;16.30;38.80
20574;DHT22;10445;50.216;7.912;2022-10-31T10:42:23;16.50;38.70
20574;DHT22;10445;50.216;7.912;2022-10-31T10:45:31;16.50;35.80
20574;DHT22;10445;50.216;7.912;2022-10-31T10:55:39;16.60;36.30
20574;DHT22;10445;50.216;7.912;2022-10-31T11:02:34;16.80;35.30
20574;DHT22;10445;50.216;7.912;2022-10-31T11:05:40;16.80;34.20
20574;DHT22;10445;50.216;7.912;2022-10-31T11:08:38;16.90;33.30
20574;DHT22;10445;50.216;7.912;2022-10-31T11:11:56;17.00;32.30
20574;DHT22;10445;50.216;7.912;2022-10-31T11:15:49;17.00;32.50
20574;DHT22;10445;50.216;7.912;2022-10-31T11:19:27;17.10;33.30
20574;DHT22;10445;50.216;7.912;2022-10-31T11:27:32;17.10;31.10
20574;DHT22;10445;50.216;7.912;2022-10-31T11:30:45;17.10;32.90
20574;DHT22;10445;50.216;7.912;2022-10-31T11:34:13;17.10;33.50
20574;DHT22;10445;50.216;7.912;2022-10-31T11:39:54;16.90;37.40
20574;DHT22;10445;50.216;7.912;2022-10-31T11:42:43;17.00;37.70
20574;DHT22;10445;50.216;7.912;2022-10-31T11:45:33;17.00;41.10
20574;DHT22;10445;50.216;7.912;2022-10-31T11:48:27;17.10;41.80
20574;DHT22;10445;50.216;7.912;2022-10-31T11:51:20;17.10;39.40
20574;DHT22;10445;50.216;7.912;2022-10-31T11:54:23;17.00;38.50
20574;DHT22;10445;50.216;7.912;2022-10-31T11:57:22;16.90;39.90
20574;DHT22;10445;50.216;7.912;2022-10-31T12:00:21;16.90;33.10
20574;DHT22;10445;50.216;7.912;2022-10-31T12:03:14;16.90;38.40
20574;DHT22;10445;50.216;7.912;2022-10-31T12:06:07;16.90;44.40
20574;DHT22;10445;50.216;7.912;2022-10-31T12:09:01;16.90;40.30
20574;DHT22;10445;50.216;7.912;2022-10-31T12:18:34;17.40;18.50
20574;DHT22;10445;50.216;7.912;2022-10-31T12:21:36;17.70;15.40
20574;DHT22;10445;50.216;7.912;2022-10-31T12:24:37;17.90;11.10
20574;DHT22;10445;50.216;7.912;2022-10-31T12:30:50;18.20;4.20
20574;DHT22;10445;50.216;7.912;2022-10-31T12:33:54;18.30;3.80
20574;DHT22;10445;50.216;7.912;2022-10-31T12:36:50;18.50;1.00
20574;DHT22;10445;50.216;7.912;2022-10-31T12:39:46;18.60;1.00
20574;DHT22;10445;50.216;7.912;2022-10-31T12:42:48;18.70;1.00
20574;DHT22;10445;50.216;7.912;2022-10-31T12:45:49;18.70;1.00
20574;DHT22;10445;50.216;7.912;2022-10-31T12:52:09;18.80;1.00
20574;DHT22;10445;50.216;7.912;2022-10-31T12:55:13;18.80;1.00
20574;DHT22;10445;50.216;7.912;2022-10-31T12:58:07;18.80;1.00
20574;DHT22;10445;50.216;7.912;2022-10-31T13:01:04;18.70;1.00
20574;DHT22;10445;50.216;7.912;2022-10-31T13:04:01;18.50;1.00
20574;DHT22;10445;50.216;7.912;2022-10-31T13:06:56;18.30;1.00
20574;DHT22;10445;50.216;7.912;2022-10-31T13:09:51;18.20;1.00
20574;DHT22;10445;50.216;7.912;2022-10-31T13:12:42;18.00;1.00
20574;DHT22;10445;50.216;7.912;2022-10-31T13:15:34;18.00;1.00
20574;DHT22;10445;50.216;7.912;2022-10-31T13:18:27;17.90;1.00
20574;DHT22;10445;50.216;7.912;2022-10-31T13:21:23;17.90;1.00
20574;DHT22;10445;50.216;7.912;2022-10-31T13:24:18;17.80;1.00
20574;DHT22;10445;50.216;7.912;2022-10-31T13:27:14;17.90;1.00
20574;DHT22;10445;50.216;7.912;2022-10-31T13:30:05;17.80;1.00
20574;DHT22;10445;50.216;7.912;2022-10-31T13:33:05;17.80;1.00
20574;DHT22;10445;50.216;7.912;2022-10-31T13:36:04;17.90;1.00
20574;DHT22;10445;50.216;7.912;2022-10-31T13:39:00;17.90;1.00
20574;DHT22;10445;50.216;7.912;2022-10-31T13:41:54;17.70;1.00
20574;DHT22;10445;50.216;7.912;2022-10-31T13:44:45;17.70;1.00
20574;DHT22;10445;50.216;7.912;2022-10-31T13:47:34;17.80;1.00
20574;DHT22;10445;50.216;7.912;2022-10-31T13:50:25;17.90;1.00
20574;DHT22;10445;50.216;7.912;2022-10-31T13:53:22;17.80;1.00
20574;DHT22;10445;50.216;7.912;2022-10-31T13:56:18;17.70;1.00
20574;DHT22;10445;50.216;7.912;2022-10-31T13:59:21;17.70;1.00
20574;DHT22;10445;50.216;7.912;2022-10-31T14:02:15;17.70;1.00
20574;DHT22;10445;50.216;7.912;2022-10-31T14:05:06;17.70;1.00
20574;DHT22;10445;50.216;7.912;2022-10-31T14:08:19;17.50;1.00
20574;DHT22;10445;50.216;7.912;2022-10-31T14:11:22;17.50;1.00
20574;DHT22;10445;50.216;7.912;2022-10-31T14:14:12;17.40;3.20
20574;DHT22;10445;50.216;7.912;2022-10-31T14:17:01;17.30;7.00
20574;DHT22;10445;50.216;7.912;2022-10-31T14:23:32;17.20;13.00
20574;DHT22;10445;50.216;7.912;2022-10-31T14:26:35;17.20;13.90
20574;DHT22;10445;50.216;7.912;2022-10-31T14:29:26;17.10;17.20
20574;DHT22;10445;50.216;7.912;2022-10-31T14:32:20;17.10;17.00
20574;DHT22;10445;50.216;7.912;2022-10-31T14:35:14;17.20;13.40
20574;DHT22;10445;50.216;7.912;2022-10-31T14:38:37;17.30;11.30
20574;DHT22;10445;50.216;7.912;2022-10-31T14:41:40;17.40;1.40
20574;DHT22;10445;50.216;7.912;2022-10-31T14:48:10;17.50;1.90
20574;DHT22;10445;50.216;7.912;2022-10-31T14:51:02;17.30;3.20
20574;DHT22;10445;50.216;7.912;2022-10-31T14:53:53;17.20;1.00
20574;DHT22;10445;50.216;7.912;2022-10-31T14:56:49;17.20;1.00
20574;DHT22;10445;50.216;7.912;2022-10-31T14:59:40;17.10;1.40
20574;DHT22;10445;50.216;7.912;2022-10-31T15:02:34;17.00;1.00
20574;DHT22;10445;50.216;7.912;2022-10-31T15:05:26;16.90;2.30
20574;DHT22;10445;50.216;7.912;2022-10-31T15:08:28;16.80;1.00
20574;DHT22;10445;50.216;7.912;2022-10-31T15:11:19;16.70;2.70
20574;DHT22;10445;50.216;7.912;2022-10-31T15:14:22;16.50;1.80
20574;DHT22;10445;50.216;7.912;2022-10-31T15:17:11;16.50;3.40
20574;DHT22;10445;50.216;7.912;2022-10-31T15:20:00;16.40;2.80
20574;DHT22;10445;50.216;7.912;2022-10-31T15:22:49;16.30;2.40
20574;DHT22;10445;50.216;7.912;2022-10-31T15:25:38;16.30;1.20
20574;DHT22;10445;50.216;7.912;2022-10-31T15:28:27;16.30;2.80
20574;DHT22;10445;50.216;7.912;2022-10-31T15:31:17;16.20;1.40
20574;DHT22;10445;50.216;7.912;2022-10-31T15:34:13;16.30;1.00
20574;DHT22;10445;50.216;7.912;2022-10-31T15:37:03;16.30;1.00
20574;DHT22;10445;50.216;7.912;2022-10-31T15:39:52;16.30;1.00
20574;DHT22;10445;50.216;7.912;2022-10-31T15:42:41;16.40;1.00
20574;DHT22;10445;50.216;7.912;2022-10-31T15:45:31;16.50;1.00
20574;DHT22;10445;50.216;7.912;2022-10-31T15:48:23;16.50;1.00
20574;DHT22;10445;50.216;7.912;2022-10-31T15:51:13;16.50;1.00
20574;DHT22;10445;50.216;7.912;2022-10-31T15:54:02;16.60;1.00
20574;DHT22;10445;50.216;7.912;2022-10-31T15:56:50;16.60;1.00
20574;DHT22;10445;50.216;7.912;2022-10-31T15:59:40;16.50;1.00
20574;DHT22;10445;50.216;7.912;2022-10-31T16:02:31;16.50;1.00
20574;DHT22;10445;50.216;7.912;2022-10-31T16:05:35;16.60;1.00
20574;DHT22;10445;50.216;7.912;2022-10-31T16:08:34;16.60;1.00
20574;DHT22;10445;50.216;7.912;2022-10-31T16:11:27;16.70;1.00
20574;DHT22;10445;50.216;7.912;2022-10-31T16:14:19;16.80;1.00
20574;DHT22;10445;50.216;7.912;2022-10-31T16:17:13;16.60;1.00
20574;DHT22;10445;50.216;7.912;2022-10-31T16:20:04;16.80;1.00
20574;DHT22;10445;50.216;7.912;2022-10-31T16:22:56;17.00;1.00
20574;DHT22;10445;50.216;7.912;2022-10-31T16:25:46;17.10;1.00
20574;DHT22;10445;50.216;7.912;2022-10-31T16:28:36;17.10;1.00
20574;DHT22;10445;50.216;7.912;2022-10-31T16:31:29;17.00;1.00
20574;DHT22;10445;50.216;7.912;2022-10-31T16:34:21;17.00;1.00
20574;DHT22;10445;50.216;7.912;2022-10-31T16:37:13;16.80;1.00
20574;DHT22;10445;50.216;7.912;2022-10-31T16:40:03;16.60;1.00
20574;DHT22;10445;50.216;7.912;2022-10-31T16:42:53;16.40;1.00
20574;DHT22;10445;50.216;7.912;2022-10-31T16:45:43;16.30;1.00
20574;DHT22;10445;50.216;7.912;2022-10-31T16:48:32;16.30;1.00
20574;DHT22;10445;50.216;7.912;2022-10-31T16:51:21;16.00;1.00
20574;DHT22;10445;50.216;7.912;2022-10-31T16:54:10;15.80;1.00
20574;DHT22;10445;50.216;7.912;2022-10-31T16:57:01;15.60;1.00
20574;DHT22;10445;50.216;7.912;2022-10-31T16:59:52;15.40;1.00
20574;DHT22;10445;50.216;7.912;2022-10-31T17:02:42;15.20;1.00
20574;DHT22;10445;50.216;7.912;2022-10-31T17:05:31;15.00;2.50
20574;DHT22;10445;50.216;7.912;2022-10-31T17:08:20;14.90;4.00
20574;DHT22;10445;50.216;7.912;2022-10-31T17:11:11;14.80;4.90
20574;DHT22;10445;50.216;7.912;2022-10-31T17:14:03;14.70;6.50
20574;DHT22;10445;50.216;7.912;2022-10-31T17:16:52;14.80;6.40
20574;DHT22;10445;50.216;7.912;2022-10-31T17:19:44;14.80;6.30
20574;DHT22;10445;50.216;7.912;2022-10-31T17:22:32;14.70;7.20
20574;DHT22;10445;50.216;7.912;2022-10-31T17:25:23;14.60;8.40
20574;DHT22;10445;50.216;7.912;2022-10-31T17:28:13;14.40;9.90
20574;DHT22;10445;50.216;7.912;2022-10-31T17:31:03;14.20;12.40
20574;DHT22;10445;50.216;7.912;2022-10-31T17:33:54;14.10;13.90
20574;DHT22;10445;50.216;7.912;2022-10-31T17:36:50;14.00;16.20
20574;DHT22;10445;50.216;7.912;2022-10-31T17:39:39;13.90;17.30
20574;DHT22;10445;50.216;7.912;2022-10-31T17:42:27;13.80;19.70
20574;DHT22;10445;50.216;7.912;2022-10-31T17:45:16;13.70;24.00
20574;DHT22;10445;50.216;7.912;2022-10-31T17:48:09;13.70;26.20
20574;DHT22;10445;50.216;7.912;2022-10-31T17:51:00;13.60;27.20
20574;DHT22;10445;50.216;7.912;2022-10-31T17:53:49;13.50;28.60
20574;DHT22;10445;50.216;7.912;2022-10-31T17:56:38;13.40;30.40
20574;DHT22;10445;50.216;7.912;2022-10-31T17:59:26;13.30;31.70
20574;DHT22;10445;50.216;7.912;2022-10-31T18:02:17;13.30;34.40
20574;DHT22;10445;50.216;7.912;2022-10-31T18:05:08;13.20;35.60
20574;DHT22;10445;50.216;7.912;2022-10-31T18:07:57;13.20;36.50
20574;DHT22;10445;50.216;7.912;2022-10-31T18:10:50;13.10;37.30
20574;DHT22;10445;50.216;7.912;2022-10-31T18:13:39;13.10;39.40
20574;DHT22;10445;50.216;7.912;2022-10-31T18:16:28;13.10;41.80
20574;DHT22;10445;50.216;7.912;2022-10-31T18:19:18;13.10;40.60
20574;DHT22;10445;50.216;7.912;2022-10-31T18:22:08;13.10;40.10
20574;DHT22;10445;50.216;7.912;2022-10-31T18:24:57;13.10;40.60
20574;DHT22;10445;50.216;7.912;2022-10-31T18:27:48;13.00;41.70
20574;DHT22;10445;50.216;7.912;2022-10-31T18:30:40;13.00;41.10
20574;DHT22;10445;50.216;7.912;2022-10-31T18:33:29;12.90;41.90
20574;DHT22;10445;50.216;7.912;2022-10-31T18:36:18;12.90;44.10
20574;DHT22;10445;50.216;7.912;2022-10-31T18:39:08;12.80;45.30
20574;DHT22;10445;50.216;7.912;2022-10-31T18:41:58;12.70;45.90
20574;DHT22;10445;50.216;7.912;2022-10-31T18:44:46;12.60;46.70
20574;DHT22;10445;50.216;7.912;2022-10-31T18:47:35;12.60;50.70
20574;DHT22;10445;50.216;7.912;2022-10-31T18:50:24;12.50;51.30
20574;DHT22;10445;50.216;7.912;2022-10-31T18:53:13;12.40;51.80
20574;DHT22;10445;50.216;7.912;2022-10-31T18:56:06;12.40;54.50
20574;DHT22;10445;50.216;7.912;2022-10-31T18:58:54;12.30;55.40
20574;DHT22;10445;50.216;7.912;2022-10-31T19:01:43;12.30;57.30
20574;DHT22;10445;50.216;7.912;2022-10-31T19:04:33;12.20;59.20
20574;DHT22;10445;50.216;7.912;2022-10-31T19:07:22;12.20;59.70
20574;DHT22;10445;50.216;7.912;2022-10-31T19:10:11;12.20;59.30
20574;DHT22;10445;50.216;7.912;2022-10-31T19:13:01;12.10;60.20
20574;DHT22;10445;50.216;7.912;2022-10-31T19:15:50;12.00;62.80
20574;DHT22;10445;50.216;7.912;2022-10-31T19:18:40;11.90;66.20
20574;DHT22;10445;50.216;7.912;2022-10-31T19:21:29;11.80;73.20
20574;DHT22;10445;50.216;7.912;2022-10-31T19:24:18;11.90;80.20
20574;DHT22;10445;50.216;7.912;2022-10-31T19:27:08;12.00;85.70
20574;DHT22;10445;50.216;7.912;2022-10-31T19:29:58;12.40;86.90
20574;DHT22;10445;50.216;7.912;2022-10-31T19:32:47;12.50;85.40
20574;DHT22;10445;50.216;7.912;2022-10-31T19:35:36;12.60;85.60
20574;DHT22;10445;50.216;7.912;2022-10-31T19:38:24;12.70;86.40
20574;DHT22;10445;50.216;7.912;2022-10-31T19:41:15;12.80;87.00
20574;DHT22;10445;50.216;7.912;2022-10-31T19:44:04;12.90;85.90
20574;DHT22;10445;50.216;7.912;2022-10-31T19:46:59;13.00;86.30
20574;DHT22;10445;50.216;7.912;2022-10-31T19:49:48;13.10;85.30
20574;DHT22;10445;50.216;7.912;2022-10-31T19:52:36;13.10;84.80
20574;DHT22;10445;50.216;7.912;2022-10-31T19:55:25;13.00;84.90
20574;DHT22;10445;50.216;7.912;2022-10-31T19:58:14;13.00;85.40
20574;DHT22;10445;50.216;7.912;2022-10-31T20:01:06;13.00;85.70
20574;DHT22;10445;50.216;7.912;2022-10-31T20:03:56;13.10;84.50
20574;DHT22;10445;50.216;7.912;2022-10-31T20:06:45;13.20;83.50
20574;DHT22;10445;50.216;7.912;2022-10-31T20:09:33;13.30;80.40
20574;DHT22;10445;50.216;7.912;2022-10-31T20:12:23;13.30;78.10
20574;DHT22;10445;50.216;7.912;2022-10-31T20:15:11;13.40;76.70
20574;DHT22;10445;50.216;7.912;2022-10-31T20:18:00;13.50;74.70
20574;DHT22;10445;50.216;7.912;2022-10-31T20:20:50;13.60;72.20
20574;DHT22;10445;50.216;7.912;2022-10-31T20:23:40;13.70;70.60
20574;DHT22;10445;50.216;7.912;2022-10-31T20:26:30;13.70;68.70
20574;DHT22;10445;50.216;7.912;2022-10-31T20:29:19;13.70;68.10
20574;DHT22;10445;50.216;7.912;2022-10-31T20:32:08;13.70;66.50
20574;DHT22;10445;50.216;7.912;2022-10-31T20:34:56;13.70;65.90
20574;DHT22;10445;50.216;7.912;2022-10-31T20:37:46;13.60;65.90
20574;DHT22;10445;50.216;7.912;2022-10-31T20:40:36;13.60;64.60